Time;durP1;ratioP1;P1;durP2;ratioP2;P2;SDS_P1;SDS_P2;PMS_P1;PMS_P2;Temp;Humidity;BMP_temperature;BMP_pressure;BME280_temperature;BME280_humidity;BME280_pressure;Samples;Min_cycle;Max_cycle;Signal;HPM_P1;HPM_P2
2023/09/22 00:01:27;;;;;;;1.10;0.67;;;;;;;19.70;82.45;99202.13;4994263;28;20520;-72
2023/09/22 00:03:57;;;;;;;1.10;1.00;;;;;;;19.71;82.41;99198.22;4998348;28;20431;-73
2023/09/22 00:06:27;;;;;;;1.10;0.60;;;;;;;19.85;82.02;99207.28;4993834;28;20396;-73
2023/09/22 00:08:56;;;;;;;1.03;0.50;;;;;;;19.71;82.38;99204.53;4993582;28;22051;-74
2023/09/22 00:11:25;;;;;;;1.10;0.80;;;;;;;19.78;82.37;99204.97;4995567;28;20996;-73
2023/09/22 00:13:55;;;;;;;1.00;0.60;;;;;;;19.81;82.13;99198.03;4992956;28;20826;-74
2023/09/22 00:16:24;;;;;;;1.83;1.03;;;;;;;19.80;82.25;99191.72;4994007;28;20442;-73
2023/09/22 00:18:55;;;;;;;0.90;0.50;;;;;;;19.87;81.81;99189.41;4989275;28;20881;-74
2023/09/22 00:21:24;;;;;;;1.40;0.90;;;;;;;19.91;81.84;99189.63;4996952;28;21013;-73
2023/09/22 00:23:54;;;;;;;1.00;0.60;;;;;;;19.91;81.65;99179.44;4992144;28;20417;-73
2023/09/22 00:26:23;;;;;;;1.20;0.70;;;;;;;20.03;80.94;99173.47;4994488;28;20413;-73
2023/09/22 00:28:56;;;;;;;1.03;0.83;;;;;;;20.17;80.23;99196.22;4995947;28;20818;-73
2023/09/22 00:31:26;;;;;;;1.20;0.70;;;;;;;20.32;79.45;99215.19;4997939;28;20436;-74
2023/09/22 00:33:59;;;;;;;1.00;0.80;;;;;;;20.02;80.83;99210.25;4999623;28;20440;-75
2023/09/22 00:36:29;;;;;;;1.10;0.70;;;;;;;20.08;80.90;99219.22;4985505;28;20508;-74
2023/09/22 00:38:58;;;;;;;1.40;0.80;;;;;;;19.79;82.01;99220.31;5000034;28;20409;-74
2023/09/22 00:41:27;;;;;;;2.07;1.53;;;;;;;20.03;81.18;99222.88;4993511;28;20432;-75
2023/09/22 00:43:57;;;;;;;1.30;0.60;;;;;;;19.87;81.60;99224.28;4992830;28;20546;-74
2023/09/22 00:46:28;;;;;;;1.50;0.60;;;;;;;19.86;82.03;99225.38;4984668;28;20476;-74
2023/09/22 00:48:59;;;;;;;1.13;0.60;;;;;;;19.78;82.44;99220.63;4995854;28;20823;-74
2023/09/22 00:51:29;;;;;;;1.10;0.70;;;;;;;19.76;82.94;99236.56;5001451;28;20442;-74
2023/09/22 00:53:59;;;;;;;0.90;0.50;;;;;;;19.84;82.63;99224.91;4992353;28;20500;-72
2023/09/22 00:56:29;;;;;;;1.20;0.90;;;;;;;19.80;82.66;99219.19;4989800;28;20947;-74
2023/09/22 01:03:11;;;;;;;0.90;0.53;;;;;;;19.68;83.49;99227.09;4992682;28;20416;-75
2023/09/22 01:05:43;;;;;;;1.10;0.83;;;;;;;19.69;83.44;99220.50;4999510;28;20481;-74
2023/09/22 01:08:12;;;;;;;0.90;0.50;;;;;;;19.60;83.72;99221.50;4998918;28;20916;-74
2023/09/22 01:10:43;;;;;;;1.43;0.70;;;;;;;19.57;84.48;99219.34;4994757;28;20527;-73
2023/09/22 01:13:13;;;;;;;1.10;0.87;;;;;;;19.51;85.00;99216.69;4990466;28;20450;-75
2023/09/22 01:15:43;;;;;;;1.50;0.60;;;;;;;19.60;84.50;99214.09;4995234;28;20437;-75
2023/09/22 01:18:14;;;;;;;1.60;0.97;;;;;;;19.67;84.09;99217.22;4996155;28;20886;-74
2023/09/22 01:20:45;;;;;;;0.90;0.50;;;;;;;19.56;84.49;99228.72;4993471;28;20459;-74
2023/09/22 01:23:16;;;;;;;3.10;1.47;;;;;;;19.57;84.73;99227.56;5002708;28;20491;-75
2023/09/22 01:25:46;;;;;;;1.20;0.90;;;;;;;19.45;85.70;99228.88;4994318;28;20445;-74
2023/09/22 01:28:15;;;;;;;1.00;0.50;;;;;;;19.62;84.60;99238.47;4992986;28;20950;-74
2023/09/22 01:30:44;;;;;;;1.33;0.90;;;;;;;19.46;85.33;99230.50;4996761;28;20924;-74
2023/09/22 01:33:13;;;;;;;4.13;1.47;;;;;;;19.47;85.49;99226.63;4990330;28;20442;-73
2023/09/22 01:35:43;;;;;;;1.27;0.60;;;;;;;19.42;86.26;99234.91;4992652;28;20442;-74
2023/09/22 01:38:16;;;;;;;0.90;0.50;;;;;;;19.28;86.88;99223.09;4995983;28;20961;-73
2023/09/22 01:40:46;;;;;;;1.00;0.50;;;;;;;19.38;86.72;99228.41;4993534;28;20442;-72
2023/09/22 01:43:16;;;;;;;3.13;1.40;;;;;;;19.38;87.01;99236.66;4992540;28;20426;-75
2023/09/22 01:45:46;;;;;;;0.90;0.50;;;;;;;19.46;86.68;99235.97;4989194;28;20443;-74
2023/09/22 01:48:16;;;;;;;0.93;0.60;;;;;;;19.53;85.92;99252.88;4989845;28;20412;-73
2023/09/22 01:50:47;;;;;;;0.90;0.50;;;;;;;19.49;86.29;99260.09;5000690;28;20444;-73
2023/09/22 01:53:18;;;;;;;1.20;0.80;;;;;;;19.47;86.53;99258.75;5013378;28;20977;-74
2023/09/22 01:55:47;;;;;;;1.27;1.00;;;;;;;19.47;86.66;99264.22;4992285;28;20473;-74
2023/09/22 01:58:16;;;;;;;0.90;0.40;;;;;;;19.38;87.03;99271.47;4984700;28;20951;-73
2023/09/22 02:00:45;;;;;;;1.30;1.00;;;;;;;19.55;86.45;99270.97;4993011;28;20477;-73
2023/09/22 02:03:14;;;;;;;1.00;0.50;;;;;;;19.48;86.66;99265.84;5000716;28;20926;-73
2023/09/22 02:05:45;;;;;;;0.90;0.50;;;;;;;19.64;85.87;99263.69;4992857;28;20436;-73
2023/09/22 02:08:15;;;;;;;1.00;0.70;;;;;;;19.69;85.67;99272.66;4994357;28;20460;-74
2023/09/22 02:10:46;;;;;;;1.17;0.60;;;;;;;19.74;85.31;99264.31;4987367;28;20412;-72
2023/09/22 02:13:15;;;;;;;1.17;0.50;;;;;;;19.48;86.39;99266.69;4991815;28;20443;-73
2023/09/22 02:15:44;;;;;;;0.90;0.50;;;;;;;19.52;86.63;99273.19;5003576;28;20449;-73
2023/09/22 02:18:13;;;;;;;1.43;1.17;;;;;;;19.54;86.68;99275.66;4992439;28;20526;-74
2023/09/22 02:20:43;;;;;;;1.50;0.70;;;;;;;19.62;85.98;99279.63;4992059;28;20416;-72
2023/09/22 02:23:13;;;;;;;1.37;0.93;;;;;;;19.62;86.13;99269.47;4990224;28;20560;-74
2023/09/22 02:25:42;;;;;;;0.90;0.50;;;;;;;19.65;85.81;99268.06;4996831;28;20482;-74
2023/09/22 02:28:13;;;;;;;1.00;0.47;;;;;;;19.58;86.26;99262.13;4997478;28;20437;-73
2023/09/22 02:30:42;;;;;;;0.90;0.40;;;;;;;19.64;86.46;99269.16;4998636;28;20404;-73
2023/09/22 02:33:11;;;;;;;0.90;0.60;;;;;;;19.76;85.75;99280.47;4999692;28;20428;-74
2023/09/22 02:35:42;;;;;;;1.47;1.37;;;;;;;19.86;85.18;99288.53;4995676;28;20450;-73
2023/09/22 02:38:11;;;;;;;1.20;1.03;;;;;;;19.88;84.83;99286.31;4992438;28;20424;-75
2023/09/22 02:40:41;;;;;;;1.33;0.97;;;;;;;19.77;85.68;99291.16;4995331;28;20532;-72
2023/09/22 02:43:12;;;;;;;0.90;0.40;;;;;;;19.74;85.96;99289.03;4999682;28;20593;-74
2023/09/22 02:45:41;;;;;;;1.27;0.80;;;;;;;19.80;85.63;99284.25;5001140;28;20450;-74
2023/09/22 02:48:11;;;;;;;1.10;0.57;;;;;;;19.74;86.08;99299.19;4995123;28;20426;-72
2023/09/22 02:50:40;;;;;;;1.27;0.73;;;;;;;19.70;86.53;99304.47;5009917;28;20448;-73
2023/09/22 02:53:09;;;;;;;1.93;1.03;;;;;;;19.65;86.67;99314.72;5000907;28;20405;-73
2023/09/22 02:55:38;;;;;;;1.03;0.80;;;;;;;19.64;87.19;99321.31;4987927;28;20467;-73
2023/09/22 02:58:08;;;;;;;1.63;0.87;;;;;;;19.70;86.71;99325.59;5005519;28;20436;-74
2023/09/22 03:00:44;;;;;;;0.90;0.40;;;;;;;19.67;87.40;99335.22;4991666;28;20455;-72
2023/09/22 03:03:14;;;;;;;1.13;0.70;;;;;;;19.62;87.37;99334.50;4994091;28;20457;-73
2023/09/22 03:05:43;;;;;;;3.53;1.17;;;;;;;19.56;87.88;99332.97;5001569;28;20488;-73
2023/09/22 03:08:12;;;;;;;1.10;0.60;;;;;;;19.59;87.88;99332.34;4992177;28;20816;-74
2023/09/22 03:10:42;;;;;;;1.10;0.93;;;;;;;19.67;87.48;99340.72;4993235;28;20478;-74
2023/09/22 03:13:11;;;;;;;1.40;0.53;;;;;;;19.65;88.06;99342.16;5000340;28;20472;-74
2023/09/22 03:15:42;;;;;;;1.00;0.83;;;;;;;19.61;88.49;99347.38;4996955;28;20489;-72
2023/09/22 03:18:13;;;;;;;0.90;0.50;;;;;;;19.65;88.74;99347.63;4997739;28;20421;-74
2023/09/22 03:20:42;;;;;;;0.90;0.50;;;;;;;19.60;89.21;99350.47;4987918;28;20446;-73
2023/09/22 03:23:11;;;;;;;0.90;0.40;;;;;;;19.51;90.26;99344.81;4995963;28;20432;-74
2023/09/22 03:25:40;;;;;;;1.63;0.67;;;;;;;19.56;90.37;99360.41;4996892;28;20516;-74
2023/09/22 03:28:09;;;;;;;1.20;1.07;;;;;;;19.56;91.05;99360.41;4998991;28;20457;-73
2023/09/22 03:30:39;;;;;;;0.90;0.50;;;;;;;19.48;91.95;99373.66;5000866;28;20400;-74
2023/09/22 03:33:10;;;;;;;0.90;0.47;;;;;;;19.43;92.39;99373.72;4996914;28;20919;-74
2023/09/22 03:35:40;;;;;;;0.90;0.40;;;;;;;19.35;92.32;99388.09;4992558;28;20505;-73
2023/09/22 03:38:10;;;;;;;0.90;0.40;;;;;;;19.29;94.13;99383.78;4995937;28;20423;-74
2023/09/22 03:40:41;;;;;;;0.87;0.40;;;;;;;19.19;94.00;99391.34;4997589;28;20401;-74
2023/09/22 03:43:11;;;;;;;0.90;0.47;;;;;;;18.98;93.22;99399.81;4985729;28;20462;-74
2023/09/22 03:45:45;;;;;;;1.53;0.77;;;;;;;18.74;93.11;99398.19;4986874;28;20432;-74
2023/09/22 03:48:18;;;;;;;1.00;0.60;;;;;;;18.60;94.98;99409.88;4999713;28;20938;-74
2023/09/22 03:50:48;;;;;;;0.90;0.40;;;;;;;18.41;95.26;99414.41;4991361;28;20417;-75
2023/09/22 03:53:20;;;;;;;0.90;0.40;;;;;;;18.37;97.09;99421.56;4994291;28;20445;-75
2023/09/22 03:55:49;;;;;;;0.90;0.40;;;;;;;18.33;98.57;99420.53;4997308;28;20473;-75
2023/09/22 03:58:20;;;;;;;0.90;0.40;;;;;;;18.55;98.33;99423.63;5001376;28;20485;-75
2023/09/22 04:00:49;;;;;;;0.90;0.40;;;;;;;18.44;98.85;99430.28;4994017;28;20441;-74
2023/09/22 04:03:20;;;;;;;1.03;0.93;;;;;;;18.46;100.00;99424.50;4992611;28;20465;-72
2023/09/22 04:05:49;;;;;;;0.90;0.40;;;;;;;18.55;99.86;99429.09;4986792;28;20430;-74
2023/09/22 04:08:19;;;;;;;0.90;0.50;;;;;;;18.30;100.00;99437.50;5001477;28;20431;-74
2023/09/22 04:10:48;;;;;;;0.90;0.40;;;;;;;18.43;100.00;99436.88;4988310;28;20438;-73
2023/09/22 04:13:18;;;;;;;0.90;0.40;;;;;;;18.19;100.00;99436.00;4998244;28;20454;-73
2023/09/22 04:15:47;;;;;;;0.90;0.40;;;;;;;18.16;100.00;99436.56;5011963;28;20539;-74
2023/09/22 04:18:17;;;;;;;0.80;0.40;;;;;;;18.36;100.00;99438.28;4992018;28;20408;-74
2023/09/22 04:20:55;;;;;;;0.90;0.60;;;;;;;18.37;100.00;99450.88;4995259;28;20421;-75
2023/09/22 04:23:25;;;;;;;0.90;0.50;;;;;;;18.28;100.00;99444.41;4987863;28;20440;-75
2023/09/22 04:25:55;;;;;;;0.83;0.43;;;;;;;18.18;100.00;99421.50;4999378;28;20423;-75
2023/09/22 04:28:25;;;;;;;0.80;0.40;;;;;;;18.16;100.00;99417.38;4992973;28;20451;-73
2023/09/22 04:30:54;;;;;;;0.90;0.50;;;;;;;18.14;100.00;99433.31;4989086;28;20441;-72
2023/09/22 04:33:24;;;;;;;0.90;0.60;;;;;;;18.16;100.00;99414.66;5001054;28;20422;-76
2023/09/22 04:35:55;;;;;;;0.80;0.40;;;;;;;17.93;100.00;99404.44;4994520;28;20470;-74
2023/09/22 04:38:24;;;;;;;0.87;0.40;;;;;;;17.76;100.00;99411.16;5002038;28;20631;-74
2023/09/22 04:40:58;;;;;;;0.80;0.40;;;;;;;17.96;100.00;99412.13;4990155;28;20397;-74
2023/09/22 04:43:27;;;;;;;0.90;0.50;;;;;;;17.99;100.00;99408.78;4994207;28;20474;-74
2023/09/22 04:45:56;;;;;;;0.80;0.40;;;;;;;18.26;100.00;99409.09;4989700;28;20477;-75
2023/09/22 04:48:26;;;;;;;0.80;0.40;;;;;;;18.14;100.00;99401.28;4996416;28;20436;-76
2023/09/22 04:50:57;;;;;;;0.80;0.40;;;;;;;18.24;100.00;99400.34;4995231;28;20479;-75
2023/09/22 04:53:28;;;;;;;1.00;0.70;;;;;;;18.43;100.00;99404.00;4993548;28;20486;-75
2023/09/22 04:56:03;;;;;;;0.90;0.50;;;;;;;18.37;100.00;99410.63;4983463;28;20429;-76
2023/09/22 04:58:32;;;;;;;1.00;0.80;;;;;;;18.25;100.00;99412.91;4992501;28;20438;-74
2023/09/22 05:01:02;;;;;;;0.90;0.53;;;;;;;18.30;100.00;99417.56;4996846;28;20417;-75
2023/09/22 05:03:32;;;;;;;0.80;0.50;;;;;;;18.04;100.00;99414.22;4989704;28;20452;-73
2023/09/22 05:06:06;;;;;;;0.80;0.40;;;;;;;18.31;100.00;99422.72;4993213;28;20457;-75
2023/09/22 05:08:36;;;;;;;0.80;0.40;;;;;;;18.31;100.00;99450.09;4991125;28;20439;-75
2023/09/22 05:11:07;;;;;;;1.30;0.53;;;;;;;18.27;100.00;99449.06;4991864;28;20430;-75
2023/09/22 05:13:36;;;;;;;0.80;0.50;;;;;;;18.58;100.00;99452.38;4997260;28;20437;-75
2023/09/22 05:16:08;;;;;;;0.80;0.40;;;;;;;18.64;100.00;99441.03;4990611;28;20470;-75
2023/09/22 05:18:37;;;;;;;0.80;0.50;;;;;;;18.47;100.00;99437.09;4984879;28;20435;-75
2023/09/22 05:21:09;;;;;;;1.10;0.50;;;;;;;18.62;100.00;99434.25;4991739;28;20526;-75
2023/09/22 05:24:05;;;;;;;0.80;0.40;;;;;;;18.58;100.00;99439.50;4992714;28;20886;-74
2023/09/22 05:26:34;;;;;;;0.90;0.50;;;;;;;18.64;100.00;99443.78;4985868;28;20427;-74
2023/09/22 05:29:04;;;;;;;0.90;0.50;;;;;;;18.79;100.00;99450.22;4987618;28;20425;-75
2023/09/22 05:31:36;;;;;;;0.80;0.40;;;;;;;18.89;100.00;99455.56;5001488;28;20414;-73
2023/09/22 05:34:05;;;;;;;0.80;0.40;;;;;;;18.67;100.00;99456.91;4989184;28;20412;-75
2023/09/22 05:36:36;;;;;;;0.80;0.40;;;;;;;18.59;100.00;99463.00;4992524;28;20452;-75
2023/09/22 05:39:05;;;;;;;0.90;0.50;;;;;;;18.51;100.00;99469.09;4990415;28;20809;-76
2023/09/22 05:41:34;;;;;;;0.80;0.40;;;;;;;18.52;100.00;99468.00;4996952;28;20436;-75
2023/09/22 05:44:04;;;;;;;0.80;0.50;;;;;;;18.34;100.00;99471.47;4984624;28;20469;-75
2023/09/22 05:46:33;;;;;;;1.30;1.17;;;;;;;18.20;100.00;99486.91;4986643;28;20411;-73
2023/09/22 05:49:05;;;;;;;0.80;0.40;;;;;;;18.26;100.00;99491.22;4991435;28;20484;-75
2023/09/22 05:51:36;;;;;;;0.80;0.40;;;;;;;18.24;100.00;99499.75;4986683;28;20465;-75
2023/09/22 05:54:06;;;;;;;0.80;0.40;;;;;;;18.51;100.00;99510.19;4994041;28;20408;-75
2023/09/22 05:56:36;;;;;;;0.80;0.40;;;;;;;18.62;100.00;99517.25;4991805;28;20447;-74
2023/09/22 05:59:06;;;;;;;0.80;0.40;;;;;;;18.34;100.00;99531.72;4991489;28;20519;-75
2023/09/22 06:01:37;;;;;;;0.80;0.43;;;;;;;18.29;100.00;99537.22;4982998;28;20435;-75
2023/09/22 06:20:15;;;;;;;0.80;0.40;;;;;;;18.51;100.00;99559.50;4994203;28;20444;-75
2023/09/22 06:22:47;;;;;;;1.10;0.60;;;;;;;18.55;100.00;99573.47;4989964;28;20405;-75
2023/09/22 06:25:16;;;;;;;1.13;0.50;;;;;;;18.73;100.00;99569.22;4989196;28;21475;-76
2023/09/22 06:27:46;;;;;;;0.90;0.50;;;;;;;18.98;100.00;99568.94;4991233;28;20432;-74
2023/09/22 06:30:18;;;;;;;0.80;0.40;;;;;;;18.85;100.00;99564.16;4987550;28;20427;-74
2023/09/22 06:32:47;;;;;;;0.80;0.40;;;;;;;19.07;100.00;99576.25;4990556;28;20910;-75
2023/09/22 06:35:18;;;;;;;1.10;0.67;;;;;;;19.19;100.00;99592.34;4998213;28;20448;-73
2023/09/22 06:37:49;;;;;;;0.90;0.40;;;;;;;19.10;100.00;99599.56;4991414;28;20518;-74
2023/09/22 06:40:18;;;;;;;0.87;0.40;;;;;;;19.18;100.00;99590.69;4991127;28;20528;-74
2023/09/22 06:42:47;;;;;;;1.20;0.57;;;;;;;19.25;99.23;99587.63;5003025;28;20467;-74
2023/09/22 06:45:18;;;;;;;0.83;0.40;;;;;;;19.44;97.98;99600.31;4996607;28;20460;-74
2023/09/22 06:47:48;;;;;;;2.40;0.73;;;;;;;19.23;99.18;99609.84;4987093;28;20473;-74
2023/09/22 06:50:19;;;;;;;0.80;0.40;;;;;;;19.09;99.99;99597.91;4989296;28;20451;-74
2023/09/22 06:52:48;;;;;;;0.80;0.40;;;;;;;19.28;98.10;99596.06;4991661;28;20807;-73
2023/09/22 06:55:18;;;;;;;0.90;0.40;;;;;;;19.42;97.50;99599.75;4995471;28;20439;-75
2023/09/22 06:57:47;;;;;;;1.00;0.50;;;;;;;19.55;96.47;99589.22;4998380;28;21082;-73
2023/09/22 07:00:18;;;;;;;0.80;0.40;;;;;;;19.81;93.80;99596.03;4994549;28;20434;-74
2023/09/22 07:02:49;;;;;;;0.90;0.40;;;;;;;19.69;94.08;99607.44;4993122;28;20434;-74
2023/09/22 07:05:20;;;;;;;0.90;0.50;;;;;;;19.55;94.85;99619.41;4994217;28;20492;-75
2023/09/22 07:07:52;;;;;;;0.80;0.40;;;;;;;19.54;93.96;99626.81;4989839;28;20540;-74
2023/09/22 07:10:23;;;;;;;0.90;0.40;;;;;;;19.64;94.34;99634.13;5000151;28;20735;-73
2023/09/22 07:12:53;;;;;;;1.77;0.50;;;;;;;19.53;95.79;99639.72;4991168;28;20408;-74
2023/09/22 07:15:23;;;;;;;0.87;0.50;;;;;;;19.39;95.58;99630.53;4998897;28;20424;-74
2023/09/22 07:17:52;;;;;;;1.00;0.60;;;;;;;19.32;95.32;99624.53;4990492;28;20986;-76
2023/09/22 07:20:23;;;;;;;0.90;0.50;;;;;;;19.37;96.12;99642.88;4997417;28;20508;-76
2023/09/22 07:22:52;;;;;;;1.20;0.80;;;;;;;19.40;95.74;99637.66;4990190;28;20445;-75
2023/09/22 07:25:26;;;;;;;0.90;0.40;;;;;;;19.28;96.41;99645.44;4992794;28;20459;-74
2023/09/22 07:27:55;;;;;;;0.90;0.40;;;;;;;19.23;96.07;99650.97;4992395;28;20445;-74
2023/09/22 07:34:38;;;;;;;1.10;0.50;;;;;;;19.37;94.45;99662.91;4987952;28;20993;-73
2023/09/22 07:49:18;;;;;;;0.90;0.40;;;;;;;18.94;96.08;99694.81;4989359;28;20456;-75
2023/09/22 07:51:48;;;;;;;0.80;0.40;;;;;;;19.03;97.28;99687.63;5012522;28;20424;-78
2023/09/22 07:54:18;;;;;;;1.10;0.97;;;;;;;19.01;94.93;99689.03;5015131;28;20463;-76
2023/09/22 07:56:47;;;;;;;0.90;0.50;;;;;;;18.98;95.84;99690.41;5023873;28;20444;-76
2023/09/22 08:03:47;;;;;;;0.90;0.40;;;;;;;19.38;93.53;99694.72;5003426;28;20458;-76
2023/09/22 08:10:29;;;;;;;0.93;0.60;;;;;;;19.56;89.63;99719.84;5006723;28;20479;-76
2023/09/22 08:12:58;;;;;;;0.80;0.40;;;;;;;19.78;89.14;99717.41;5015198;28;20384;-76
2023/09/22 08:15:28;;;;;;;0.87;0.40;;;;;;;19.72;88.17;99716.63;5012843;28;20456;-77
2023/09/22 08:17:58;;;;;;;0.87;0.40;;;;;;;19.80;88.28;99712.44;5015850;28;20435;-76
2023/09/22 08:24:40;;;;;;;0.90;0.40;;;;;;;19.52;89.22;99711.34;5001251;28;20496;-77
2023/09/22 08:27:11;;;;;;;0.90;0.47;;;;;;;19.61;89.72;99711.53;5010386;28;20400;-76
2023/09/22 08:29:40;;;;;;;1.00;0.50;;;;;;;19.71;88.88;99720.47;5012432;28;20434;-74
2023/09/22 08:32:10;;;;;;;0.90;0.40;;;;;;;20.03;87.42;99713.53;5017218;28;20403;-76
2023/09/22 08:34:39;;;;;;;0.90;0.40;;;;;;;20.18;85.85;99730.66;5013089;28;20444;-74
2023/09/22 08:37:09;;;;;;;0.90;0.40;;;;;;;20.45;85.12;99740.22;5018797;28;20430;-76
2023/09/22 08:39:38;;;;;;;1.00;0.70;;;;;;;20.43;85.26;99747.97;5014447;28;20416;-75
2023/09/22 08:42:07;;;;;;;1.60;0.60;;;;;;;20.38;85.93;99757.88;5006877;28;20448;-73
2023/09/22 08:44:38;;;;;;;0.90;0.53;;;;;;;20.31;84.90;99754.69;5002656;28;20448;-74
2023/09/22 08:47:11;;;;;;;0.90;0.50;;;;;;;20.14;87.87;99756.28;5009422;28;20417;-74
2023/09/22 08:49:47;;;;;;;1.00;0.60;;;;;;;20.19;88.86;99759.75;4988881;28;20516;-77
2023/09/22 08:52:25;;;;;;;0.90;0.40;;;;;;;20.11;88.11;99765.88;5009089;28;20424;-74
2023/09/22 08:54:58;;;;;;;0.90;0.40;;;;;;;20.15;88.22;99764.19;4987669;28;20481;-75
2023/09/22 08:57:32;;;;;;;0.90;0.50;;;;;;;20.29;87.43;99762.38;5004832;28;21013;-74
2023/09/22 09:00:12;;;;;;;0.90;0.50;;;;;;;20.15;89.81;99769.69;5006449;28;20503;-75
2023/09/22 09:02:46;;;;;;;0.90;0.50;;;;;;;19.99;88.99;99772.91;4988460;28;20440;-73
2023/09/22 09:05:25;;;;;;;1.00;0.60;;;;;;;20.04;89.15;99768.19;4980640;28;20491;-73
2023/09/22 09:08:12;;;;;;;0.90;0.57;;;;;;;19.96;89.59;99766.06;4996515;28;20995;-75
2023/09/22 09:10:49;;;;;;;0.97;0.43;;;;;;;19.81;91.60;99764.28;4988680;28;20425;-73
2023/09/22 09:13:31;;;;;;;0.90;0.40;;;;;;;19.73;91.17;99764.09;4998069;28;20460;-75
2023/09/22 09:16:09;;;;;;;0.90;0.40;;;;;;;19.42;94.02;99775.31;4989348;28;20549;-74
2023/09/22 09:18:44;;;;;;;0.90;0.40;;;;;;;19.27;95.36;99775.44;5005123;28;20482;-74
2023/09/22 09:21:15;;;;;;;2.20;1.63;;;;;;;19.30;93.88;99785.84;4991671;28;20457;-74
2023/09/22 09:23:54;;;;;;;0.90;0.40;;;;;;;19.24;94.34;99792.47;5001504;28;20546;-74
2023/09/22 09:26:26;;;;;;;0.93;0.50;;;;;;;19.23;94.07;99790.84;4995534;28;20473;-75
2023/09/22 09:28:58;;;;;;;1.00;0.50;;;;;;;19.19;94.38;99795.25;4987733;28;20527;-73
2023/09/22 09:31:51;;;;;;;0.90;0.40;;;;;;;18.99;95.40;99811.84;4989676;28;20517;-74
2023/09/22 09:42:04;;;;;;;0.90;0.40;;;;;;;19.00;94.34;99816.22;5002297;28;20924;-75
2023/09/22 09:44:37;;;;;;;0.90;0.43;;;;;;;19.06;94.04;99817.84;4988710;28;20441;-74
2023/09/22 09:47:14;;;;;;;1.33;0.97;;;;;;;19.16;93.56;99820.53;4993537;28;20449;-75
2023/09/22 09:49:52;;;;;;;0.90;0.47;;;;;;;19.46;93.36;99822.25;4988304;28;20883;-72
2023/09/22 09:52:28;;;;;;;0.90;0.40;;;;;;;19.55;91.49;99816.97;4989822;28;20456;-74
2023/09/22 09:55:13;;;;;;;0.90;0.40;;;;;;;19.29;92.49;99832.75;4989451;28;20504;-74
2023/09/22 09:57:46;;;;;;;1.77;0.60;;;;;;;19.06;94.16;99834.28;4984846;28;20456;-73
2023/09/22 10:00:20;;;;;;;0.90;0.40;;;;;;;18.77;94.30;99834.19;4989368;28;20450;-74
2023/09/22 10:02:58;;;;;;;0.90;0.40;;;;;;;18.88;94.13;99826.72;4986885;28;20454;-76
2023/09/22 10:05:43;;;;;;;0.90;0.40;;;;;;;18.93;93.69;99826.66;4988163;28;20475;-74
2023/09/22 10:08:16;;;;;;;1.83;1.73;;;;;;;18.97;92.99;99825.03;4993771;28;20431;-74
2023/09/22 10:10:51;;;;;;;0.90;0.40;;;;;;;19.24;92.38;99821.81;4985384;28;20512;-72
2023/09/22 10:13:22;;;;;;;0.90;0.47;;;;;;;19.12;91.02;99816.72;4985077;28;20492;-74
2023/09/22 10:15:57;;;;;;;0.80;0.40;;;;;;;19.06;91.63;99834.28;4989199;28;20474;-72
2023/09/22 10:18:50;;;;;;;0.90;0.40;;;;;;;19.24;90.63;99830.88;4990697;28;20545;-72
2023/09/22 10:21:38;;;;;;;0.83;0.40;;;;;;;19.15;91.24;99831.75;5007701;28;20419;-73
2023/09/22 10:24:27;;;;;;;0.90;0.40;;;;;;;19.03;92.26;99829.34;5003369;28;20439;-73
2023/09/22 10:27:19;;;;;;;0.90;0.40;;;;;;;19.38;90.07;99818.16;5005380;28;20464;-73
2023/09/22 10:29:56;;;;;;;1.20;0.67;;;;;;;19.31;89.82;99809.44;5001358;28;20424;-73
2023/09/22 10:36:35;;;;;;;0.80;0.40;;;;;;;19.21;89.84;99825.97;5001708;28;20464;-74
2023/09/22 10:39:12;;;;;;;0.90;0.53;;;;;;;19.32;88.93;99830.25;5002095;28;20427;-74
2023/09/22 10:42:02;;;;;;;1.00;0.50;;;;;;;19.24;89.39;99836.38;4993189;28;20433;-73
2023/09/22 10:44:58;;;;;;;0.90;0.50;;;;;;;19.42;88.03;99824.69;5005989;28;20573;-74
2023/09/22 10:47:43;;;;;;;0.90;0.40;;;;;;;19.42;88.47;99816.47;5000354;28;20437;-74
2023/09/22 10:50:21;;;;;;;0.80;0.40;;;;;;;19.67;87.64;99828.38;4994796;28;20460;-73
2023/09/22 10:52:57;;;;;;;0.90;0.40;;;;;;;19.62;85.11;99832.00;5000298;28;20779;-73
2023/09/22 10:55:36;;;;;;;0.90;0.40;;;;;;;19.62;84.80;99831.16;5005834;28;20504;-73
2023/09/22 10:58:11;;;;;;;0.90;0.40;;;;;;;19.41;86.22;99831.28;5009581;28;20412;-75
2023/09/22 11:00:56;;;;;;;0.90;0.40;;;;;;;19.32;85.72;99827.53;5002887;28;20450;-73
2023/09/22 11:03:35;;;;;;;0.90;0.40;;;;;;;19.57;84.73;99839.44;4996856;28;20790;-73
2023/09/22 11:06:19;;;;;;;0.90;0.40;;;;;;;19.57;84.45;99832.03;4998366;28;20560;-74
2023/09/22 11:08:55;;;;;;;0.90;0.40;;;;;;;19.35;84.21;99826.97;4996273;28;20730;-75
2023/09/22 11:11:31;;;;;;;1.10;0.60;;;;;;;19.55;83.50;99827.94;4994641;28;20825;-74
2023/09/22 11:14:04;;;;;;;0.90;0.40;;;;;;;19.38;82.54;99820.91;4998019;28;20438;-74
2023/09/22 11:16:56;;;;;;;0.90;0.40;;;;;;;19.53;82.61;99818.06;4996819;28;20444;-73
2023/09/22 11:19:32;;;;;;;1.10;0.50;;;;;;;19.57;82.16;99823.78;4991937;28;20424;-72
2023/09/22 11:22:06;;;;;;;0.90;0.40;;;;;;;19.89;82.38;99826.81;4996858;28;20834;-73
2023/09/22 11:24:44;;;;;;;0.90;0.50;;;;;;;20.12;79.96;99811.47;4994781;28;20496;-74
2023/09/22 11:27:18;;;;;;;0.90;0.40;;;;;;;20.06;78.36;99804.41;4976911;28;20575;-74
2023/09/22 11:30:08;;;;;;;0.90;0.50;;;;;;;19.97;79.46;99795.16;4991681;28;20603;-73
2023/09/22 11:32:40;;;;;;;0.90;0.50;;;;;;;19.81;80.78;99801.91;4994468;28;20420;-73
2023/09/22 11:35:32;;;;;;;1.00;0.50;;;;;;;19.89;80.62;99804.84;5004939;28;20812;-75
2023/09/22 11:38:27;;;;;;;0.90;0.40;;;;;;;19.88;81.78;99813.38;4989967;28;20895;-73
2023/09/22 11:41:16;;;;;;;0.90;0.50;;;;;;;19.94;81.35;99817.72;4993624;28;20514;-73
2023/09/22 11:43:51;;;;;;;1.10;0.60;;;;;;;19.90;81.00;99830.34;4997590;28;20885;-74
2023/09/22 11:46:31;;;;;;;0.90;0.40;;;;;;;20.07;81.10;99836.25;4999843;28;20810;-74
2023/09/22 11:49:08;;;;;;;1.00;0.80;;;;;;;20.22;80.31;99841.59;4988990;28;20421;-74
2023/09/22 11:51:48;;;;;;;0.90;0.40;;;;;;;20.29;80.15;99842.03;4995449;28;20778;-74
2023/09/22 11:54:25;;;;;;;0.90;0.40;;;;;;;20.53;79.59;99852.25;4990746;28;20494;-75
2023/09/22 11:57:06;;;;;;;0.90;0.40;;;;;;;20.51;80.25;99866.28;4999018;28;20443;-74
2023/09/22 11:59:41;;;;;;;0.90;0.50;;;;;;;20.58;79.66;99865.91;4991991;28;20459;-74
2023/09/22 12:02:17;;;;;;;0.90;0.60;;;;;;;20.42;80.60;99857.06;4999763;28;20401;-74
2023/09/22 12:09:04;;;;;;;0.90;0.40;;;;;;;20.33;79.44;99867.84;4983818;28;20491;-73
2023/09/22 12:11:39;;;;;;;0.90;0.40;;;;;;;20.38;79.48;99869.75;5010663;28;20509;-74
2023/09/22 12:14:14;;;;;;;0.90;0.40;;;;;;;20.50;78.92;99864.66;4993644;28;20473;-73
2023/09/22 12:16:51;;;;;;;0.90;0.53;;;;;;;20.65;78.48;99874.66;4999786;28;20449;-74
2023/09/22 12:19:27;;;;;;;0.90;0.40;;;;;;;20.59;77.53;99873.06;5012098;28;20537;-72
2023/09/22 12:22:01;;;;;;;1.10;0.60;;;;;;;20.56;78.01;99868.16;4991520;28;20419;-74
2023/09/22 12:24:34;;;;;;;0.90;0.40;;;;;;;20.60;77.72;99869.22;5014315;28;20447;-73
2023/09/22 12:27:09;;;;;;;0.90;0.40;;;;;;;20.34;78.13;99868.66;4991351;28;20958;-73
2023/09/22 12:29:46;;;;;;;0.90;0.50;;;;;;;20.56;77.58;99873.66;4994325;28;20889;-73
2023/09/22 12:32:21;;;;;;;0.90;0.40;;;;;;;20.54;76.92;99884.13;5011197;28;20497;-73
2023/09/22 12:35:00;;;;;;;0.90;0.50;;;;;;;20.46;77.64;99887.50;4989561;28;20509;-74
2023/09/22 12:37:40;;;;;;;1.10;0.70;;;;;;;20.38;77.38;99889.78;5019697;28;20441;-74
2023/09/22 12:40:12;;;;;;;0.90;0.40;;;;;;;20.26;77.36;99896.75;4997849;28;20444;-73
2023/09/22 12:42:45;;;;;;;0.90;0.40;;;;;;;20.05;78.02;99907.09;4996396;28;20454;-72
2023/09/22 12:45:19;;;;;;;0.90;0.40;;;;;;;19.89;79.27;99919.34;4995837;28;20556;-71
2023/09/22 12:47:52;;;;;;;1.00;0.60;;;;;;;19.81;79.24;99925.44;4992723;28;20567;-68
2023/09/22 12:50:23;;;;;;;0.90;0.50;;;;;;;19.63;81.21;99920.63;5002233;28;20824;-70
2023/09/22 12:52:56;;;;;;;0.90;0.50;;;;;;;19.37;81.44;99912.53;4996466;28;20854;-71
2023/09/22 12:55:31;;;;;;;0.90;0.50;;;;;;;19.05;83.64;99921.22;5003008;28;20516;-71
2023/09/22 12:58:03;;;;;;;0.90;0.40;;;;;;;19.17;83.56;99912.63;4999384;28;20409;-70
2023/09/22 13:00:43;;;;;;;1.20;0.67;;;;;;;18.94;84.64;99913.28;4991708;28;20453;-72
2023/09/22 13:03:15;;;;;;;1.00;0.40;;;;;;;18.98;85.71;99915.19;5012015;28;20420;-70